Time;durP1;ratioP1;P1;durP2;ratioP2;P2;SDS_P1;SDS_P2;PMS_P1;PMS_P2;Temp;Humidity;BMP_temperature;BMP_pressure;BME280_temperature;BME280_humidity;BME280_pressure;Samples;Min_cycle;Max_cycle;Signal;HPM_P1;HPM_P2
2022/10/07 00:01:14;;;;;;;7.20;2.15;;;;;;;;;;5096241;28;20427;-84
2022/10/07 00:03:42;;;;;;;7.45;2.17;;;;;;;;;;5094911;27;20433;-84
2022/10/07 00:06:12;;;;;;;8.80;2.13;;;;;;;;;;5089513;28;20416;-84
2022/10/07 00:08:45;;;;;;;6.45;2.05;;;;;;;;;;5119434;27;20742;-84
2022/10/07 00:11:15;;;;;;;10.80;2.40;;;;;;;;;;5095401;27;20428;-84
2022/10/07 00:13:50;;;;;;;7.90;2.22;;;;;;;;;;5102008;27;20410;-84
2022/10/07 00:16:24;;;;;;;8.47;2.00;;;;;;;;;;5096157;28;20424;-84
2022/10/07 00:18:58;;;;;;;8.38;2.17;;;;;;;;;;5087247;28;20885;-83
2022/10/07 00:21:27;;;;;;;7.70;2.15;;;;;;;;;;5088079;27;20865;-83
2022/10/07 00:24:00;;;;;;;7.13;2.05;;;;;;;;;;5099919;28;20418;-84
2022/10/07 00:26:36;;;;;;;6.13;2.07;;;;;;;;;;5116286;27;20418;-84
2022/10/07 00:29:09;;;;;;;13.13;2.20;;;;;;;;;;5099578;27;20416;-84
2022/10/07 00:31:41;;;;;;;9.35;2.28;;;;;;;;;;5102223;28;20412;-84
2022/10/07 00:34:10;;;;;;;8.70;2.35;;;;;;;;;;5097726;28;20414;-84
2022/10/07 00:36:38;;;;;;;8.82;2.38;;;;;;;;;;5102072;27;20427;-84
2022/10/07 00:39:13;;;;;;;10.50;2.40;;;;;;;;;;5087709;27;20425;-84
2022/10/07 00:41:43;;;;;;;9.30;2.50;;;;;;;;;;5104587;28;20419;-84
2022/10/07 00:44:32;;;;;;;8.13;2.30;;;;;;;;;;5117596;27;20410;-84
2022/10/07 00:47:10;;;;;;;12.57;2.50;;;;;;;;;;5108954;27;20902;-84
2022/10/07 00:49:41;;;;;;;8.52;2.38;;;;;;;;;;5099166;28;20414;-84
2022/10/07 00:52:08;;;;;;;9.02;2.33;;;;;;;;;;5095716;28;20425;-85
2022/10/07 00:54:37;;;;;;;8.32;2.28;;;;;;;;;;5093151;28;20417;-84
2022/10/07 00:57:06;;;;;;;7.15;2.47;;;;;;;;;;5105835;27;20414;-85
2022/10/07 00:59:36;;;;;;;10.80;2.45;;;;;;;;;;5098281;28;20437;-84
2022/10/07 01:02:04;;;;;;;8.70;2.35;;;;;;;;;;5107185;27;20790;-85
2022/10/07 01:04:32;;;;;;;12.20;2.53;;;;;;;;;;5099340;28;20416;-84
2022/10/07 01:07:00;;;;;;;7.20;2.60;;;;;;;;;;5112225;27;20412;-85
2022/10/07 01:09:28;;;;;;;13.25;2.70;;;;;;;;;;5091746;28;20416;-85
2022/10/07 01:12:06;;;;;;;8.80;2.53;;;;;;;;;;5108508;28;20408;-85
2022/10/07 01:14:44;;;;;;;11.27;2.50;;;;;;;;;;5114401;28;20408;-85
2022/10/07 01:17:21;;;;;;;8.75;2.50;;;;;;;;;;5090477;28;20417;-85
2022/10/07 01:20:00;;;;;;;10.55;2.83;;;;;;;;;;5114066;28;20401;-85
2022/10/07 01:22:32;;;;;;;10.43;2.83;;;;;;;;;;5098578;28;20405;-84
2022/10/07 01:25:12;;;;;;;12.18;2.80;;;;;;;;;;5112112;27;20411;-85
2022/10/07 01:27:43;;;;;;;11.18;2.70;;;;;;;;;;5098297;28;20404;-87
2022/10/07 01:30:17;;;;;;;10.40;2.90;;;;;;;;;;5088612;28;20418;-85
2022/10/07 01:32:47;;;;;;;10.70;2.80;;;;;;;;;;5102668;28;20406;-86
2022/10/07 01:35:17;;;;;;;12.07;2.50;;;;;;;;;;5086130;28;20427;-84
2022/10/07 01:37:51;;;;;;;8.35;2.90;;;;;;;;;;5108420;28;20811;-84
2022/10/07 01:40:21;;;;;;;8.97;2.60;;;;;;;;;;5102180;28;20414;-84
2022/10/07 01:42:51;;;;;;;9.45;2.70;;;;;;;;;;5112347;27;20404;-85
2022/10/07 01:45:20;;;;;;;10.93;2.63;;;;;;;;;;5083504;28;20429;-85
2022/10/07 01:47:49;;;;;;;9.43;2.90;;;;;;;;;;5110194;28;20411;-86
2022/10/07 01:50:18;;;;;;;8.52;2.78;;;;;;;;;;5094297;28;20427;-85
2022/10/07 01:52:54;;;;;;;9.13;3.10;;;;;;;;;;5091742;28;20420;-85
2022/10/07 01:55:29;;;;;;;8.57;2.67;;;;;;;;;;5095296;28;20409;-84
2022/10/07 01:58:05;;;;;;;8.40;2.75;;;;;;;;;;5092537;28;20420;-87
2022/10/07 02:00:43;;;;;;;11.73;2.80;;;;;;;;;;5104281;27;20398;-86
2022/10/07 02:03:29;;;;;;;10.82;2.97;;;;;;;;;;5103964;28;20409;-86
2022/10/07 02:06:06;;;;;;;8.77;3.03;;;;;;;;;;5097972;28;20408;-86
2022/10/07 02:08:37;;;;;;;10.20;3.10;;;;;;;;;;5087141;28;20438;-86
2022/10/07 02:11:12;;;;;;;11.38;2.72;;;;;;;;;;5094570;28;20412;-87
2022/10/07 02:13:56;;;;;;;10.48;2.80;;;;;;;;;;5101675;28;20408;-86
2022/10/07 02:16:31;;;;;;;8.73;2.80;;;;;;;;;;5101564;28;20404;-87
2022/10/07 02:19:06;;;;;;;11.88;3.00;;;;;;;;;;5090198;28;20423;-86
2022/10/07 02:21:36;;;;;;;8.20;3.10;;;;;;;;;;5098405;28;20423;-86
2022/10/07 02:24:05;;;;;;;9.75;3.30;;;;;;;;;;5110572;28;20404;-87
2022/10/07 02:26:33;;;;;;;9.02;3.03;;;;;;;;;;5112874;28;20420;-86
2022/10/07 02:29:10;;;;;;;8.80;2.87;;;;;;;;;;5111580;27;20763;-86
2022/10/07 02:31:40;;;;;;;9.30;2.92;;;;;;;;;;5088345;28;20416;-86
2022/10/07 02:34:09;;;;;;;13.57;3.05;;;;;;;;;;5089083;27;20748;-85
2022/10/07 02:36:39;;;;;;;9.85;2.90;;;;;;;;;;5092463;28;20415;-86
2022/10/07 02:39:07;;;;;;;11.35;2.83;;;;;;;;;;5099548;28;20447;-85
2022/10/07 02:41:40;;;;;;;12.53;3.13;;;;;;;;;;5101014;28;20888;-85
2022/10/07 02:44:24;;;;;;;6.13;2.78;;;;;;;;;;5109181;27;20437;-86
2022/10/07 02:46:55;;;;;;;8.95;2.85;;;;;;;;;;5093919;28;20419;-85
2022/10/07 02:49:29;;;;;;;10.18;2.90;;;;;;;;;;5092720;28;20419;-85
2022/10/07 02:51:59;;;;;;;14.30;3.20;;;;;;;;;;5119669;27;20408;-86
2022/10/07 02:54:36;;;;;;;9.73;2.70;;;;;;;;;;5093465;28;20419;-86
2022/10/07 02:57:06;;;;;;;12.18;2.90;;;;;;;;;;5106430;28;20405;-86
2022/10/07 02:59:41;;;;;;;9.65;2.97;;;;;;;;;;5093316;28;20408;-86
2022/10/07 03:02:19;;;;;;;10.90;3.00;;;;;;;;;;5098969;27;21022;-86
2022/10/07 03:04:47;;;;;;;11.55;3.10;;;;;;;;;;5098564;28;20412;-86
2022/10/07 03:07:15;;;;;;;7.70;3.05;;;;;;;;;;5091944;28;20936;-86
2022/10/07 03:09:43;;;;;;;9.68;3.13;;;;;;;;;;5100492;28;20417;-86
2022/10/07 03:12:16;;;;;;;10.80;3.00;;;;;;;;;;5093320;28;20922;-87
2022/10/07 03:14:51;;;;;;;10.53;3.00;;;;;;;;;;5099353;28;20427;-87
2022/10/07 03:17:20;;;;;;;11.67;2.97;;;;;;;;;;5096138;28;20512;-86
2022/10/07 03:19:53;;;;;;;8.00;2.77;;;;;;;;;;5100973;27;20414;-86
2022/10/07 03:22:20;;;;;;;12.60;3.45;;;;;;;;;;5095852;28;20413;-86
2022/10/07 03:24:53;;;;;;;10.85;3.45;;;;;;;;;;5112119;28;20411;-87
2022/10/07 03:27:26;;;;;;;9.65;2.90;;;;;;;;;;5093210;28;20408;-87
2022/10/07 03:29:57;;;;;;;12.00;3.15;;;;;;;;;;5108263;28;20400;-87
2022/10/07 03:32:30;;;;;;;13.25;3.00;;;;;;;;;;5095241;28;20413;-86
2022/10/07 03:34:58;;;;;;;11.02;3.20;;;;;;;;;;5092642;28;20423;-86
2022/10/07 03:37:31;;;;;;;8.90;3.20;;;;;;;;;;5100477;28;20416;-87
2022/10/07 03:40:06;;;;;;;9.77;3.03;;;;;;;;;;5105862;28;20435;-86
2022/10/07 03:42:34;;;;;;;8.20;3.20;;;;;;;;;;5103509;28;20412;-87
2022/10/07 03:45:04;;;;;;;11.10;3.20;;;;;;;;;;5103616;28;20417;-87
2022/10/07 03:47:32;;;;;;;10.60;2.97;;;;;;;;;;5092864;28;20408;-86
2022/10/07 03:50:07;;;;;;;9.60;3.00;;;;;;;;;;5081824;28;20412;-87
2022/10/07 03:52:35;;;;;;;8.30;3.00;;;;;;;;;;5096712;28;20415;-87
2022/10/07 03:55:08;;;;;;;10.85;3.22;;;;;;;;;;5085673;28;20421;-86
2022/10/07 03:57:52;;;;;;;10.27;3.45;;;;;;;;;;5092870;28;20409;-87
2022/10/07 04:00:26;;;;;;;9.90;3.30;;;;;;;;;;5083587;28;20405;-86
2022/10/07 04:02:56;;;;;;;15.83;3.37;;;;;;;;;;5094796;28;20438;-86
2022/10/07 04:05:24;;;;;;;12.43;3.30;;;;;;;;;;5099263;28;20909;-86
2022/10/07 04:07:52;;;;;;;13.70;3.63;;;;;;;;;;5099036;28;20428;-86
2022/10/07 04:10:21;;;;;;;12.32;3.00;;;;;;;;;;5094874;28;20417;-87
2022/10/07 04:12:57;;;;;;;9.63;3.22;;;;;;;;;;5094839;28;20891;-86
2022/10/07 04:15:33;;;;;;;8.57;3.13;;;;;;;;;;5100069;28;20931;-86
2022/10/07 04:18:01;;;;;;;11.85;3.30;;;;;;;;;;5095117;28;20408;-86
2022/10/07 04:20:30;;;;;;;13.38;3.17;;;;;;;;;;5099159;28;20777;-86
2022/10/07 04:23:02;;;;;;;12.35;3.58;;;;;;;;;;5096023;28;20767;-86
2022/10/07 04:25:36;;;;;;;10.65;3.70;;;;;;;;;;5092800;28;20412;-86
2022/10/07 04:28:16;;;;;;;13.10;3.27;;;;;;;;;;5109612;28;20416;-86
2022/10/07 04:30:50;;;;;;;10.45;3.45;;;;;;;;;;5084974;28;20412;-87
2022/10/07 04:33:22;;;;;;;10.13;3.20;;;;;;;;;;5096395;28;20404;-86
2022/10/07 04:35:56;;;;;;;15.25;3.25;;;;;;;;;;5073047;28;20778;-86
2022/10/07 04:38:24;;;;;;;11.98;3.33;;;;;;;;;;5099539;28;20407;-86
2022/10/07 04:40:52;;;;;;;12.68;3.30;;;;;;;;;;5100489;28;20907;-85
2022/10/07 04:43:22;;;;;;;13.18;3.42;;;;;;;;;;5101659;27;20414;-88
2022/10/07 04:46:05;;;;;;;10.07;3.20;;;;;;;;;;5102599;28;20473;-87
2022/10/07 04:48:35;;;;;;;11.10;3.35;;;;;;;;;;5096311;28;20416;-84
2022/10/07 04:51:08;;;;;;;13.38;3.17;;;;;;;;;;5095688;28;20425;-86
2022/10/07 04:53:39;;;;;;;9.15;3.20;;;;;;;;;;5084609;27;20481;-87
2022/10/07 04:56:10;;;;;;;10.48;3.30;;;;;;;;;;5100733;28;20409;-87
2022/10/07 04:58:38;;;;;;;13.50;2.95;;;;;;;;;;5090673;28;20416;-87
2022/10/07 05:01:12;;;;;;;12.25;3.83;;;;;;;;;;5105198;28;20500;-86
2022/10/07 05:03:47;;;;;;;9.73;3.80;;;;;;;;;;5104886;27;20896;-86
2022/10/07 05:06:20;;;;;;;11.27;4.18;;;;;;;;;;5099564;28;20406;-86
2022/10/07 05:08:53;;;;;;;13.32;3.67;;;;;;;;;;5107399;27;20407;-86
2022/10/07 05:11:24;;;;;;;7.95;3.20;;;;;;;;;;5104407;28;20420;-86
2022/10/07 05:14:00;;;;;;;13.32;4.20;;;;;;;;;;5102337;27;20414;-85
2022/10/07 05:16:36;;;;;;;11.85;3.75;;;;;;;;;;5091007;28;20427;-86
2022/10/07 05:19:05;;;;;;;14.00;3.97;;;;;;;;;;5104007;28;20412;-86
2022/10/07 05:21:33;;;;;;;10.57;3.63;;;;;;;;;;5095581;28;20423;-87
2022/10/07 05:24:03;;;;;;;11.98;3.75;;;;;;;;;;5103827;28;20412;-86
2022/10/07 05:26:35;;;;;;;11.38;3.60;;;;;;;;;;5112938;28;20416;-86
2022/10/07 05:29:09;;;;;;;11.88;4.40;;;;;;;;;;5098254;27;20412;-86
2022/10/07 05:31:49;;;;;;;11.77;3.95;;;;;;;;;;5104870;28;20416;-86
2022/10/07 05:34:20;;;;;;;12.93;4.30;;;;;;;;;;5104755;27;20425;-86
2022/10/07 05:36:48;;;;;;;11.40;3.63;;;;;;;;;;5113346;27;20400;-85
2022/10/07 05:39:21;;;;;;;12.70;3.80;;;;;;;;;;5108392;27;20401;-86
2022/10/07 05:41:54;;;;;;;14.00;3.58;;;;;;;;;;5109739;28;20811;-86
2022/10/07 05:44:26;;;;;;;15.55;3.40;;;;;;;;;;5098660;27;20913;-86
2022/10/07 05:46:58;;;;;;;11.52;3.40;;;;;;;;;;5096549;28;20412;-87
2022/10/07 05:49:32;;;;;;;13.75;4.75;;;;;;;;;;5091867;28;20939;-87
2022/10/07 05:52:06;;;;;;;16.65;5.68;;;;;;;;;;5091016;28;20417;-86
2022/10/07 05:54:35;;;;;;;10.80;4.47;;;;;;;;;;5097416;27;20910;-87
2022/10/07 05:57:04;;;;;;;10.57;4.47;;;;;;;;;;5107322;27;20411;-87
2022/10/07 05:59:36;;;;;;;12.13;3.53;;;;;;;;;;5102984;28;20443;-86
2022/10/07 06:02:06;;;;;;;12.90;4.00;;;;;;;;;;5094103;28;20480;-85
2022/10/07 06:04:41;;;;;;;9.35;3.55;;;;;;;;;;5077615;28;20412;-86
2022/10/07 06:07:16;;;;;;;13.18;3.75;;;;;;;;;;5095196;28;20773;-86
2022/10/07 06:15:29;;;;;;;9.57;2.90;;;;;;;;;;5100191;28;20408;-86
2022/10/07 06:18:04;;;;;;;11.85;3.10;;;;;;;;;;5104665;28;20416;-86
2022/10/07 06:20:33;;;;;;;12.73;3.08;;;;;;;;;;5084408;28;20412;-86
2022/10/07 06:23:06;;;;;;;10.70;3.47;;;;;;;;;;5079799;28;20782;-86
2022/10/07 06:25:34;;;;;;;9.85;3.58;;;;;;;;;;5099384;27;20782;-84
2022/10/07 06:28:02;;;;;;;10.00;3.38;;;;;;;;;;5093118;28;20423;-85
2022/10/07 06:30:37;;;;;;;8.85;3.20;;;;;;;;;;5089918;28;20409;-87
2022/10/07 06:33:11;;;;;;;7.82;3.25;;;;;;;;;;5110139;27;20909;-86
2022/10/07 06:35:45;;;;;;;7.57;3.22;;;;;;;;;;5094650;28;20415;-86
2022/10/07 06:38:13;;;;;;;10.55;3.40;;;;;;;;;;5110907;28;20761;-86
2022/10/07 06:40:55;;;;;;;9.25;3.25;;;;;;;;;;5091581;28;20412;-86
2022/10/07 06:43:31;;;;;;;7.63;2.78;;;;;;;;;;5098283;28;20913;-86
2022/10/07 06:46:06;;;;;;;8.88;3.40;;;;;;;;;;5085486;28;20421;-86
2022/10/07 06:48:43;;;;;;;10.93;3.53;;;;;;;;;;5083156;28;20891;-86
2022/10/07 06:51:12;;;;;;;11.18;3.00;;;;;;;;;;5089065;28;20446;-91
2022/10/07 06:53:50;;;;;;;10.77;3.40;;;;;;;;;;5085350;28;20435;-89
2022/10/07 06:56:18;;;;;;;11.77;3.20;;;;;;;;;;5098396;28;20414;-86
2022/10/07 06:58:51;;;;;;;7.97;3.10;;;;;;;;;;5091796;28;20420;-86
2022/10/07 07:01:36;;;;;;;8.32;3.00;;;;;;;;;;5092134;28;20424;-86
2022/10/07 07:04:10;;;;;;;9.65;3.13;;;;;;;;;;5091578;28;20425;-85
2022/10/07 07:06:43;;;;;;;10.83;3.40;;;;;;;;;;5084307;28;20429;-86
2022/10/07 07:09:16;;;;;;;11.15;3.20;;;;;;;;;;5105214;28;20915;-87
2022/10/07 07:11:46;;;;;;;12.47;3.07;;;;;;;;;;5072430;28;20403;-85
2022/10/07 07:14:18;;;;;;;10.73;3.05;;;;;;;;;;5078654;28;20424;-87
2022/10/07 07:17:00;;;;;;;9.80;2.70;;;;;;;;;;5074022;28;20424;-90
2022/10/07 07:19:35;;;;;;;11.32;3.25;;;;;;;;;;5075514;28;20431;-87
2022/10/07 07:22:04;;;;;;;9.10;2.97;;;;;;;;;;5076799;28;20421;-86
2022/10/07 07:24:32;;;;;;;10.40;3.03;;;;;;;;;;5073055;28;20435;-86
2022/10/07 07:27:00;;;;;;;8.00;2.60;;;;;;;;;;5074329;28;20511;-88
2022/10/07 07:29:30;;;;;;;10.07;2.65;;;;;;;;;;5073495;28;20432;-89
2022/10/07 07:32:03;;;;;;;9.10;2.40;;;;;;;;;;5078774;28;20416;-88
2022/10/07 07:34:36;;;;;;;7.97;2.30;;;;;;;;;;5081382;28;20416;-89
2022/10/07 07:37:06;;;;;;;12.45;2.67;;;;;;;;;;5077374;28;20463;-87
2022/10/07 07:39:44;;;;;;;13.27;2.50;;;;;;;;;;5071886;28;20421;-87
2022/10/07 07:42:17;;;;;;;6.97;2.17;;;;;;;;;;5076535;28;20422;-87
2022/10/07 07:44:45;;;;;;;8.88;2.33;;;;;;;;;;5078640;28;20921;-87
2022/10/07 07:47:16;;;;;;;11.68;2.60;;;;;;;;;;5080396;28;20476;-86
2022/10/07 07:49:51;;;;;;;8.27;2.20;;;;;;;;;;5074484;28;20427;-86
2022/10/07 07:52:29;;;;;;;11.65;2.70;;;;;;;;;;5075160;28;20424;-88
2022/10/07 07:54:58;;;;;;;8.57;2.40;;;;;;;;;;5080507;28;20405;-88
2022/10/07 07:57:32;;;;;;;7.40;2.22;;;;;;;;;;5098355;28;20432;-90
2022/10/07 08:00:06;;;;;;;7.78;2.03;;;;;;;;;;5065685;28;20411;-87
2022/10/07 08:02:40;;;;;;;12.07;2.40;;;;;;;;;;5094041;28;20874;-90
2022/10/07 08:05:19;;;;;;;11.63;2.17;;;;;;;;;;5072884;28;20414;-86
2022/10/07 08:07:47;;;;;;;6.95;2.10;;;;;;;;;;5075011;28;20421;-89
2022/10/07 08:10:15;;;;;;;11.88;2.13;;;;;;;;;;5094255;28;20911;-89
2022/10/07 08:12:48;;;;;;;8.13;2.03;;;;;;;;;;5079020;28;20545;-89
2022/10/07 08:15:21;;;;;;;10.60;2.03;;;;;;;;;;5087143;28;20412;-89
2022/10/07 08:17:49;;;;;;;8.70;2.20;;;;;;;;;;5097563;28;20414;-89
2022/10/07 08:20:23;;;;;;;8.13;2.00;;;;;;;;;;5072638;28;20404;-88
2022/10/07 08:22:52;;;;;;;8.20;2.10;;;;;;;;;;5083141;28;20420;-89
2022/10/07 08:25:27;;;;;;;12.90;2.08;;;;;;;;;;5096662;27;20427;-87
2022/10/07 08:27:55;;;;;;;13.07;1.98;;;;;;;;;;5071693;28;20423;-87
2022/10/07 08:30:23;;;;;;;11.40;2.15;;;;;;;;;;5074954;28;20424;-87
2022/10/07 08:32:51;;;;;;;9.95;2.30;;;;;;;;;;5077000;28;20896;-89
2022/10/07 08:35:25;;;;;;;12.18;3.47;;;;;;;;;;5091145;28;20435;-88
2022/10/07 08:37:57;;;;;;;12.90;2.10;;;;;;;;;;5076271;28;20467;-88
2022/10/07 08:40:30;;;;;;;9.40;2.08;;;;;;;;;;5076498;28;21098;-87
2022/10/07 08:43:05;;;;;;;8.45;2.03;;;;;;;;;;5075449;28;20435;-86
2022/10/07 08:45:33;;;;;;;10.35;1.80;;;;;;;;;;5073105;28;20439;-86
2022/10/07 08:48:10;;;;;;;8.27;1.90;;;;;;;;;;5076430;28;20416;-87
2022/10/07 08:50:50;;;;;;;8.48;1.92;;;;;;;;;;5102687;28;20420;-86
2022/10/07 08:53:28;;;;;;;11.18;2.50;;;;;;;;;;5083882;28;20434;-85
2022/10/07 08:56:06;;;;;;;13.38;2.30;;;;;;;;;;5074690;28;20432;-87
2022/10/07 08:58:43;;;;;;;10.75;2.60;;;;;;;;;;5093197;28;20429;-87
2022/10/07 09:01:24;;;;;;;8.75;1.90;;;;;;;;;;5073467;28;21134;-87
2022/10/07 09:03:58;;;;;;;8.83;2.03;;;;;;;;;;5097070;27;20419;-88
2022/10/07 09:06:34;;;;;;;6.97;1.77;;;;;;;;;;5100835;28;20423;-86
2022/10/07 09:09:04;;;;;;;7.13;1.60;;;;;;;;;;5094793;28;20424;-87
2022/10/07 09:11:32;;;;;;;10.30;2.05;;;;;;;;;;5093484;28;20424;-87
2022/10/07 09:14:13;;;;;;;8.03;1.67;;;;;;;;;;5074834;28;20428;-87
2022/10/07 09:16:47;;;;;;;8.05;1.70;;;;;;;;;;5073084;28;20429;-85
2022/10/07 09:19:22;;;;;;;13.32;1.98;;;;;;;;;;5097162;28;21275;-85
2022/10/07 09:21:59;;;;;;;10.20;2.03;;;;;;;;;;5046037;28;20432;-88
2022/10/07 09:24:28;;;;;;;8.23;1.83;;;;;;;;;;5068819;28;22177;-87
2022/10/07 09:26:57;;;;;;;8.00;2.10;;;;;;;;;;5074682;28;20424;-87
2022/10/07 09:29:30;;;;;;;11.35;1.90;;;;;;;;;;5077285;28;20869;-88
2022/10/07 09:32:03;;;;;;;10.68;2.10;;;;;;;;;;5090832;28;20419;-86
2022/10/07 09:34:31;;;;;;;10.95;1.70;;;;;;;;;;5074063;28;20466;-88
2022/10/07 09:37:13;;;;;;;12.60;1.80;;;;;;;;;;5075692;28;20428;-87
2022/10/07 09:39:42;;;;;;;12.63;1.87;;;;;;;;;;5075109;28;20424;-88
2022/10/07 09:42:23;;;;;;;10.85;1.92;;;;;;;;;;5075131;28;21335;-87
2022/10/07 09:44:58;;;;;;;12.75;1.50;;;;;;;;;;5072558;28;20424;-86
2022/10/07 09:47:27;;;;;;;9.38;1.67;;;;;;;;;;5073921;28;21065;-88
2022/10/07 09:50:00;;;;;;;8.88;1.45;;;;;;;;;;5084933;28;20977;-87
2022/10/07 09:52:35;;;;;;;11.10;1.70;;;;;;;;;;5071659;28;20435;-85
2022/10/07 09:55:25;;;;;;;9.07;1.73;;;;;;;;;;5073534;28;20420;-86
2022/10/07 09:57:59;;;;;;;9.20;1.83;;;;;;;;;;5073866;28;21348;-85
2022/10/07 10:00:32;;;;;;;10.20;1.50;;;;;;;;;;5073190;28;20439;-86
2022/10/07 10:03:02;;;;;;;9.43;1.70;;;;;;;;;;5077183;28;20436;-87
2022/10/07 10:05:36;;;;;;;11.15;1.50;;;;;;;;;;5071458;28;20924;-87
2022/10/07 10:08:06;;;;;;;9.98;1.83;;;;;;;;;;5066206;28;20443;-87
2022/10/07 10:10:35;;;;;;;10.55;1.73;;;;;;;;;;5082670;28;20420;-88
2022/10/07 10:13:22;;;;;;;7.68;1.70;;;;;;;;;;5060055;28;20792;-87
2022/10/07 10:15:56;;;;;;;9.27;1.70;;;;;;;;;;5063808;28;20836;-88
2022/10/07 10:18:29;;;;;;;10.75;1.83;;;;;;;;;;5057768;28;21034;-87
2022/10/07 10:21:14;;;;;;;12.43;1.77;;;;;;;;;;5031265;28;20431;-87
2022/10/07 10:23:45;;;;;;;8.80;1.88;;;;;;;;;;5062683;28;22566;-88
2022/10/07 10:26:24;;;;;;;13.52;2.33;;;;;;;;;;5062659;28;20451;-89
2022/10/07 10:29:01;;;;;;;11.68;1.92;;;;;;;;;;5076087;28;20435;-87
2022/10/07 10:31:32;;;;;;;7.87;1.57;;;;;;;;;;5055634;28;20877;-88
2022/10/07 10:34:09;;;;;;;9.73;1.52;;;;;;;;;;5061092;28;20655;-86
2022/10/07 10:36:44;;;;;;;8.23;1.50;;;;;;;;;;5072202;28;20766;-87
2022/10/07 10:39:21;;;;;;;9.95;1.58;;;;;;;;;;5064147;28;20424;-87
2022/10/07 10:41:55;;;;;;;10.30;2.08;;;;;;;;;;5060168;28;20965;-86
2022/10/07 10:44:38;;;;;;;9.68;1.88;;;;;;;;;;5074258;28;20780;-87
2022/10/07 10:47:11;;;;;;;10.63;1.77;;;;;;;;;;5053017;28;20756;-88
2022/10/07 10:49:44;;;;;;;12.32;2.22;;;;;;;;;;5070257;28;20424;-86
2022/10/07 10:52:31;;;;;;;12.25;2.33;;;;;;;;;;5071692;28;20421;-89
2022/10/07 10:55:14;;;;;;;8.32;1.75;;;;;;;;;;5071068;28;20416;-87
2022/10/07 10:57:48;;;;;;;6.97;1.60;;;;;;;;;;5083789;28;20413;-87
2022/10/07 11:00:17;;;;;;;10.80;1.80;;;;;;;;;;5087314;28;20880;-88
2022/10/07 11:03:14;;;;;;;11.27;1.92;;;;;;;;;;5085902;28;20415;-87
2022/10/07 11:05:47;;;;;;;10.18;1.42;;;;;;;;;;5085776;28;20416;-88
2022/10/07 11:08:17;;;;;;;12.68;1.85;;;;;;;;;;5084267;28;20431;-88
2022/10/07 11:10:50;;;;;;;10.70;1.70;;;;;;;;;;5086858;28;21143;-87
2022/10/07 11:13:27;;;;;;;12.30;1.53;;;;;;;;;;5082419;28;20423;-86
2022/10/07 11:15:58;;;;;;;8.70;1.30;;;;;;;;;;5075728;28;20431;-86
2022/10/07 11:18:34;;;;;;;9.90;1.50;;;;;;;;;;5081685;28;20431;-88
2022/10/07 11:21:04;;;;;;;10.55;1.67;;;;;;;;;;5059013;28;20423;-91
2022/10/07 11:23:39;;;;;;;9.40;1.57;;;;;;;;;;5077973;28;20923;-85
2022/10/07 11:26:16;;;;;;;10.60;1.48;;;;;;;;;;5075372;28;20443;-88
2022/10/07 11:28:44;;;;;;;6.22;1.52;;;;;;;;;;5083443;28;20412;-89
2022/10/07 11:31:16;;;;;;;8.55;1.67;;;;;;;;;;5084440;28;20420;-87
2022/10/07 11:33:50;;;;;;;10.07;1.60;;;;;;;;;;5079766;28;20419;-86
2022/10/07 11:36:21;;;;;;;10.30;1.55;;;;;;;;;;5084183;28;20433;-87
2022/10/07 11:38:54;;;;;;;7.53;1.65;;;;;;;;;;5080993;28;21030;-89
2022/10/07 11:41:25;;;;;;;11.93;2.78;;;;;;;;;;5085600;28;21163;-89
2022/10/07 11:44:00;;;;;;;10.20;2.38;;;;;;;;;;5100111;28;21818;-86
2022/10/07 11:46:34;;;;;;;13.88;1.58;;;;;;;;;;5074320;28;20427;-88
2022/10/07 11:49:12;;;;;;;8.50;1.50;;;;;;;;;;5075882;28;20424;-86
2022/10/07 11:51:44;;;;;;;9.77;1.30;;;;;;;;;;5084722;28;20427;-88
2022/10/07 11:54:14;;;;;;;9.60;1.50;;;;;;;;;;5079113;28;20432;-88
2022/10/07 11:56:46;;;;;;;11.63;2.03;;;;;;;;;;5079270;28;20439;-88
2022/10/07 11:59:28;;;;;;;8.00;1.42;;;;;;;;;;5076030;28;20997;-87
2022/10/07 12:02:01;;;;;;;12.63;1.75;;;;;;;;;;5089792;28;20416;-87
2022/10/07 12:04:37;;;;;;;8.40;1.42;;;;;;;;;;5080903;28;20431;-86
2022/10/07 12:07:23;;;;;;;7.47;1.45;;;;;;;;;;5090599;28;20950;-86
2022/10/07 12:10:08;;;;;;;8.13;1.45;;;;;;;;;;5088761;28;20431;-87
2022/10/07 12:12:50;;;;;;;10.25;1.83;;;;;;;;;;5064371;28;20780;-88
2022/10/07 12:15:28;;;;;;;8.77;1.60;;;;;;;;;;5077970;28;20816;-86
2022/10/07 12:18:22;;;;;;;13.00;1.60;;;;;;;;;;5070600;28;20435;-88
2022/10/07 12:21:07;;;;;;;9.73;2.05;;;;;;;;;;5049663;28;20412;-87
2022/10/07 12:23:42;;;;;;;8.15;1.58;;;;;;;;;;5074838;28;20407;-89
2022/10/07 12:26:49;;;;;;;10.15;1.40;;;;;;;;;;5084459;28;20907;-87
2022/10/07 12:29:22;;;;;;;10.93;1.80;;;;;;;;;;5107047;28;20744;-90
2022/10/07 12:31:50;;;;;;;8.00;1.67;;;;;;;;;;5083750;28;20419;-87
2022/10/07 12:34:42;;;;;;;9.32;1.52;;;;;;;;;;5094214;28;20427;-86
2022/10/07 12:37:35;;;;;;;9.75;1.38;;;;;;;;;;5075512;28;20416;-86
2022/10/07 12:40:07;;;;;;;10.07;1.40;;;;;;;;;;5079797;28;20428;-87
2022/10/07 12:42:45;;;;;;;11.15;1.55;;;;;;;;;;5079130;28;20428;-87
2022/10/07 12:45:21;;;;;;;13.20;1.80;;;;;;;;;;5082575;28;20433;-88
2022/10/07 12:47:50;;;;;;;8.73;1.40;;;;;;;;;;5075772;28;20424;-87
2022/10/07 12:50:19;;;;;;;6.45;1.20;;;;;;;;;;5062750;28;20443;-86
2022/10/07 12:52:49;;;;;;;10.45;1.38;;;;;;;;;;5069318;28;20427;-88
2022/10/07 12:55:25;;;;;;;8.00;1.55;;;;;;;;;;5063036;28;20420;-87
2022/10/07 12:59:46;;;;;;;10.13;1.67;;;;;;;;;;5065514;28;20698;-88
2022/10/07 13:00:53;;;;;;;10.20;1.65;;;;;;;;;;5066256;28;20529;-88
2022/10/07 13:03:36;;;;;;;9.27;1.60;;;;;;;;;;5060832;28;20427;-87
2022/10/07 13:06:22;;;;;;;8.77;1.50;;;;;;;;;;5060975;28;20428;-85
2022/10/07 13:09:08;;;;;;;11.10;2.72;;;;;;;;;;5062359;28;21336;-87
2022/10/07 13:12:00;;;;;;;11.02;1.80;;;;;;;;;;5083063;28;22015;-86
2022/10/07 13:14:33;;;;;;;9.52;1.80;;;;;;;;;;5068756;28;20428;-88
2022/10/07 13:17:14;;;;;;;7.22;1.58;;;;;;;;;;5096386;28;20905;-87
2022/10/07 13:19:52;;;;;;;7.57;1.60;;;;;;;;;;5082258;28;20906;-85
2022/10/07 13:22:25;;;;;;;5.37;1.37;;;;;;;;;;5056315;28;21152;-87
2022/10/07 13:24:58;;;;;;;10.40;1.70;;;;;;;;;;5082727;28;20408;-87
2022/10/07 13:27:33;;;;;;;7.70;1.47;;;;;;;;;;5079370;28;20450;-85
2022/10/07 13:30:06;;;;;;;8.13;1.55;;;;;;;;;;5083731;28;20426;-87
2022/10/07 13:32:36;;;;;;;8.38;1.42;;;;;;;;;;5051207;28;20439;-86
2022/10/07 13:35:23;;;;;;;7.63;1.40;;;;;;;;;;5065802;28;20435;-85
2022/10/07 13:37:56;;;;;;;15.07;4.30;;;;;;;;;;5070276;28;20436;-88
2022/10/07 13:40:34;;;;;;;9.13;1.83;;;;;;;;;;5059386;28;21472;-89
2022/10/07 13:43:02;;;;;;;11.07;1.70;;;;;;;;;;5062652;28;20463;-84
2022/10/07 13:45:32;;;;;;;9.20;1.65;;;;;;;;;;5078087;28;20419;-88
2022/10/07 13:48:01;;;;;;;8.55;1.70;;;;;;;;;;5070160;28;21245;-85
2022/10/07 13:50:34;;;;;;;8.13;1.55;;;;;;;;;;5068224;28;20420;-85
2022/10/07 13:53:14;;;;;;;8.73;1.65;;;;;;;;;;5084445;28;20423;-86
2022/10/07 13:55:47;;;;;;;9.23;1.60;;;;;;;;;;5061882;28;20435;-85
2022/10/07 13:58:20;;;;;;;7.95;1.50;;;;;;;;;;5067342;28;20432;-84
2022/10/07 14:00:54;;;;;;;8.40;1.60;;;;;;;;;;5060016;28;21438;-87
2022/10/07 14:03:28;;;;;;;5.13;1.30;;;;;;;;;;5078862;28;20474;-85
2022/10/07 14:06:01;;;;;;;9.70;1.90;;;;;;;;;;5067570;28;20428;-88
2022/10/07 14:08:30;;;;;;;7.47;1.60;;;;;;;;;;5065801;28;20466;-85
2022/10/07 14:11:02;;;;;;;8.85;1.67;;;;;;;;;;5065323;28;20438;-87
2022/10/07 14:13:36;;;;;;;6.97;1.25;;;;;;;;;;5081859;28;20432;-85
2022/10/07 14:16:04;;;;;;;9.48;1.98;;;;;;;;;;5060677;28;20436;-85
2022/10/07 14:18:42;;;;;;;6.88;1.25;;;;;;;;;;5065551;28;20420;-85
2022/10/07 14:21:16;;;;;;;10.23;1.63;;;;;;;;;;5042609;28;20774;-87
2022/10/07 14:23:45;;;;;;;7.03;1.50;;;;;;;;;;5062040;28;20983;-86
2022/10/07 14:26:15;;;;;;;7.68;1.50;;;;;;;;;;5060718;28;20470;-85
2022/10/07 14:28:43;;;;;;;7.93;1.30;;;;;;;;;;5064398;28;20945;-84
2022/10/07 14:37:06;;;;;;;8.30;1.60;;;;;;;;;;5059323;28;20565;-85
2022/10/07 14:39:41;;;;;;;8.57;1.40;;;;;;;;;;5062287;28;20436;-85
2022/10/07 14:42:13;;;;;;;11.30;1.80;;;;;;;;;;5075331;28;20409;-87
2022/10/07 14:44:45;;;;;;;5.82;1.45;;;;;;;;;;5104699;27;20422;-84
2022/10/07 14:47:18;;;;;;;10.27;1.88;;;;;;;;;;5076907;28;20778;-85
2022/10/07 14:49:48;;;;;;;8.93;1.75;;;;;;;;;;5104094;28;20419;-86
2022/10/07 14:52:22;;;;;;;6.57;1.67;;;;;;;;;;5108633;28;20412;-87
2022/10/07 14:54:51;;;;;;;9.27;1.73;;;;;;;;;;5095685;28;20422;-86
2022/10/07 14:57:18;;;;;;;6.83;1.53;;;;;;;;;;5087344;28;20414;-87
2022/10/07 14:59:51;;;;;;;6.90;1.40;;;;;;;;;;5077156;28;20477;-87
2022/10/07 15:02:24;;;;;;;8.73;1.60;;;;;;;;;;5107258;28;20786;-85
2022/10/07 15:04:58;;;;;;;5.90;1.58;;;;;;;;;;5097093;28;20420;-84
2022/10/07 15:07:26;;;;;;;9.73;1.90;;;;;;;;;;5109391;28;20412;-85
2022/10/07 15:09:59;;;;;;;7.20;1.30;;;;;;;;;;5089727;28;20420;-85
2022/10/07 15:12:28;;;;;;;11.43;2.10;;;;;;;;;;5091268;27;20428;-85
2022/10/07 15:15:01;;;;;;;11.32;2.47;;;;;;;;;;5080554;28;20452;-85
2022/10/07 15:17:29;;;;;;;5.77;1.57;;;;;;;;;;5101637;28;20430;-85
2022/10/07 15:20:03;;;;;;;11.70;1.63;;;;;;;;;;5092439;27;20418;-89
2022/10/07 15:22:31;;;;;;;10.68;2.00;;;;;;;;;;5088698;28;20427;-84
2022/10/07 15:25:00;;;;;;;9.03;1.70;;;;;;;;;;5087107;28;20421;-84